Grundy Center, Iowa
Current Conditions -  °F | °C
As of 2:53 PM on Friday 31 Oct 2014 (Local Time) from KMIW Reporting Station
Clear Clear  
Wind Chill: 34°   Ceiling: Unl
Heat Index: 42°   Visibility: 10mi
Dew Point: 18°   Wind: 18mph
Humidity: 38%   Direction: 340°NNW
Pressure: 30.44"   Gusts: 25mph
Location:  42.36°N, 92.77°W
Report Text: KMIW 311953Z AUTO 34016G22KT 10SM CLR 06/M08 A3044 RMK AO2 SLP317 T00561078
Loading
Personal Weather Stations






























Interactive Weather Map
Tropical Storm Tracking
New forecast layout! Learn more

10-Day Weather Forecast

Advertisements
Track Severe Weather on mobile